• Join FlightAware (Why Join?)
  • Login
  • US Flag 
10:56AM EST


 

Airport Tracker/Info


-or-


 

Live Flight TrackerFlight Track Log ✈ SWA896 ✈ 17-Apr-2013 ✈ KLAS - KSMF

Flight Track Log - Related Links

Times and Time Zones

All times are in EDT time to prevent confusion due to time zone crossing. See the SWA896 flight status page for this flight to view local times or setup timezone preferences in your user account.

Time Position Orientation Groundspeed Altitude Reporting Facility
EDT Latitude Longitude Course Direction KTS MPH feet Rate Location/Type
01:53PM 36.1047 -115.1508 315° West 153 176 3,200  Level Los Angeles Center
01:54PM 36.1283 -115.1803 315° West 195 224 4,700 1,920 Climbing Los Angeles Center
01:55PM 36.1228 -115.2072 256° West 229 264 5,900 2,700 Climbing Los Angeles Center
01:55PM 36.1128 -115.2572 256° West 239 275 7,500 3,480 Climbing Los Angeles Center
01:56PM 36.0919 -115.2983 238° Southwest 242 278 9,500 2,400 Climbing Los Angeles Center
01:57PM 36.0600 -115.3919 247° West 292 336 11,500 2,580 Climbing Los Angeles Center
01:58PM 36.0292 -115.5006 251° West 326 375 14,900 2,760 Climbing Los Angeles Center
01:59PM 35.9936 -115.6225 250° West 362 417 17,300 2,340 Climbing Los Angeles Center
02:00PM 35.9572 -115.7561 251° West 381 438 19,800 2,160 Climbing Los Angeles Center
02:01PM 35.9844 -115.8706 286° West 369 425 21,800 1,920 Climbing Los Angeles Center
02:02PM 36.0558 -115.9772 310° West 374 430 23,900 1,920 Climbing Los Angeles Center
02:03PM 36.1253 -116.0853 309° West 377 434 25,800 1,800 Climbing Los Angeles Center
02:04PM 36.1950 -116.1853 311° West 383 441 27,700 2,040 Climbing Los Angeles Center
02:05PM 36.2617 -116.2856 310° West 385 443 30,100 1,800 Climbing Los Angeles Center
02:06PM 36.3261 -116.3828 309° West 374 430 31,500 1,140 Climbing Los Angeles Center
02:07PM 36.3914 -116.4817 309° West 372 428 32,500 900 Climbing Los Angeles Center
02:08PM 36.4619 -116.5869 310° West 391 450 33,400 720 Climbing Los Angeles Center
02:09PM 36.5353 -116.7011 309° West 405 466 34,000 240 Climbing Los Angeles Center
02:10PM 36.6397 -116.8056 321° Northwest 406 467 34,000  Level Los Angeles Center
02:11PM 36.7353 -116.8761 329° Northwest 400 460 34,000 120 Level Los Angeles Center
02:12PM 36.8297 -116.9489 328° Northwest 399 459 34,300 780 Climbing Los Angeles Center
02:13PM 36.9236 -117.0197 329° Northwest 394 453 35,700 1,140 Climbing Los Angeles Center
02:14PM 36.9594 -117.0494 326° Northwest 392 451 36,000 180 Climbing Oakland Center
02:15PM 37.0547 -117.1222 329° Northwest 396 456 36,000  Level Oakland Center
02:16PM 37.1508 -117.1978 328° Northwest 405 466 36,000  Level Oakland Center
02:17PM 37.2453 -117.2714 328° Northwest 400 460 36,000  Level Oakland Center
02:18PM 37.3456 -117.3778 320° Northwest 402 463 36,000  Level Oakland Center
02:19PM 37.4167 -117.4856 310° West 400 460 36,000  Level Oakland Center
02:20PM 37.4867 -117.5919 310° West 396 456 36,000  Level Oakland Center
02:21PM 37.5578 -117.7000 310° West 396 456 36,000  Level Oakland Center
02:22PM 37.6292 -117.8086 310° West 400 460 36,000  Level Oakland Center
02:23PM 37.7011 -117.9197 309° West 405 466 36,000  Level Oakland Center
02:24PM 37.7736 -118.0303 310° West 405 466 36,000  Level Oakland Center
02:25PM 37.8456 -118.1419 309° West 408 470 36,000 -180 Level Oakland Center
02:26PM 37.9158 -118.2503 309° West 400 460 35,700 -660 Descending Oakland Center
02:27PM 37.9861 -118.3581 310° West 396 456 34,700 -1,020 Descending Oakland Center
02:28PM 38.0539 -118.4644 309° West 390 449 33,700 -1,080 Descending Oakland Center
02:29PM 38.1317 -118.5869 309° West 372 428 32,500 -1,020 Descending Oakland Center
02:30PM 38.1936 -118.6839 309° West 379 436 31,700 -900 Descending Oakland Center
02:31PM 38.2608 -118.7892 309° West 382 440 30,700 -840 Descending Oakland Center
02:32PM 38.3303 -118.8969 309° West 391 450 30,000 -360 Descending Oakland Center
02:33PM 38.3994 -119.0075 309° West 398 458 30,000  Level Oakland Center
02:34PM 38.4678 -119.1158 309° West 395 455 30,000  Level Oakland Center
02:35PM 38.5517 -119.2497 309° West 398 458 30,000  Level Oakland Center
02:36PM 38.6208 -119.3597 309° West 398 458 30,000  Level Oakland Center
02:37PM 38.6856 -119.4728 306° West 397 457 30,000  Level Oakland Center
02:38PM 38.7161 -119.6139 286° West 410 472 30,000 -240 Level Oakland Center
02:39PM 38.7444 -119.7547 285° West 408 470 29,600 -1,560 Descending Oakland Center
02:40PM 38.7728 -119.8875 285° West 414 476 26,900 -3,000 Descending Oakland Center
02:41PM 38.8031 -120.0328 285° West 423 487 23,500 -3,420 Descending Oakland Center
02:43PM 38.8347 -120.1961 284° West 399 459 20,000 -2,520 Descending Oakland Center
02:44PM 38.8606 -120.3300 284° West 390 449 18,400 -1,920 Descending Oakland Center
02:45PM 38.8881 -120.4614 285° West 385 443 16,200 -1,200 Descending Oakland Center
02:46PM 38.9119 -120.5889 284° West 372 428 16,000 -120 Descending Oakland Center
02:47PM 38.9206 -120.7231 275° West 390 449 16,000 -1,080 Level Oakland Center
02:48PM 38.9147 -120.8603 267° West 388 447 13,900 -2,340 Descending Oakland Center
02:49PM 38.9092 -120.9978 267° West 390 449 11,300 -1,920 Descending Oakland Center
02:50PM 38.9031 -121.1292 267° West 376 433 10,000 -780 Descending Oakland Center
02:50PM 38.9000 -121.2500 268° West 350 403 10,000 -660 Level Northern Cal TRACON
02:51PM 38.9000 -121.3500 270° West 289 333 8,900 -1,440 Descending Northern Cal TRACON
02:52PM 38.8833 -121.4500 258° West 298 343 7,200 -1,560 Descending Northern Cal TRACON
02:53PM 38.8667 -121.5333 256° West 293 337 6,000 -1,260 Descending Northern Cal TRACON
02:54PM 38.8500 -121.6333 258° West 288 331 4,900 -1,200 Descending Northern Cal TRACON
02:55PM 38.8367 -121.6708 245° Southwest 294 338 4,200 -1,260 Descending Oakland Center
02:56PM 38.7658 -121.6928 194° South 291 335 3,000 -660 Descending Oakland Center
02:57PM 38.6908 -121.6844 175° South 275 316 2,900 -420 Descending Oakland Center
02:58PM 38.6267 -121.6569 161° South 218 251 2,200 -900 Descending Oakland Center
02:59PM 38.6275 -121.6033 89° East 172 198 1,100 -960 Descending Oakland Center
02:59PM 38.6500 -121.6000 North 149 171 900 -720 Descending Northern Cal TRACON
03:00PM 38.6833 -121.6000 360° North 136 157 100 -840 Descending Northern Cal TRACON